createdAt,value
2023-04-16T00:01:23.776Z,17.42
2023-04-16T00:04:12.933Z,16.83
2023-04-16T00:06:58.949Z,18.27
2023-04-16T00:09:44.625Z,14.70
2023-04-16T00:12:30.861Z,21.77
2023-04-16T00:15:16.433Z,17.35
2023-04-16T00:18:02.242Z,16.70
2023-04-16T00:20:49.363Z,19.23
2023-04-16T00:23:34.961Z,20.58
2023-04-16T00:26:20.645Z,19.80
2023-04-16T00:29:06.162Z,19.05
2023-04-16T00:31:51.960Z,18.13
2023-04-16T00:34:37.493Z,20.77
2023-04-16T00:37:26.197Z,18.45
2023-04-16T00:40:12.138Z,20.05
2023-04-16T00:42:58.211Z,15.43
2023-04-16T00:45:43.549Z,19.42
2023-04-16T00:48:31.817Z,14.85
2023-04-16T00:51:22.881Z,15.77
2023-04-16T00:54:08.322Z,14.52
2023-04-16T00:56:53.846Z,14.18
2023-04-16T00:59:40.468Z,12.80
2023-04-16T01:02:26.055Z,14.43
2023-04-16T01:05:12.031Z,13.88
2023-04-16T01:08:01.002Z,14.40
2023-04-16T01:10:46.819Z,14.88
2023-04-16T01:13:34.578Z,15.70
2023-04-16T01:16:21.069Z,16.45
2023-04-16T01:19:07.895Z,13.20
2023-04-16T01:21:53.970Z,13.32
2023-04-16T01:24:39.698Z,12.18
2023-04-16T01:27:24.957Z,14.30
2023-04-16T01:30:11.018Z,15.43
2023-04-16T01:32:58.621Z,20.58
2023-04-16T01:35:44.565Z,14.73
2023-04-16T01:38:30.506Z,15.27
2023-04-16T01:41:16.004Z,11.85
2023-04-16T01:44:01.619Z,16.77
2023-04-16T01:46:47.493Z,17.20
2023-04-16T01:49:33.840Z,13.50
2023-04-16T01:52:19.134Z,14.52
2023-04-16T01:55:04.608Z,12.55
2023-04-16T01:57:50.692Z,14.93
2023-04-16T02:00:36.363Z,18.88
2023-04-16T02:03:24.907Z,13.95
2023-04-16T02:06:10.944Z,11.77
2023-04-16T02:08:56.789Z,11.77
2023-04-16T02:11:42.154Z,12.05
2023-04-16T02:14:27.673Z,16.10
2023-04-16T02:17:13.471Z,12.77
2023-04-16T02:19:58.698Z,11.35
2023-04-16T02:22:44.364Z,11.77
2023-04-16T02:25:29.776Z,7.65
2023-04-16T02:28:17.108Z,13.35
2023-04-16T02:31:02.515Z,15.20
2023-04-16T02:33:48.118Z,12.27
2023-04-16T02:36:33.458Z,10.10
2023-04-16T02:39:18.809Z,9.35
2023-04-16T02:42:04.497Z,11.50
2023-04-16T02:44:50.384Z,8.73
2023-04-16T02:47:35.934Z,11.80
2023-04-16T02:50:21.445Z,12.15
2023-04-16T02:53:07.835Z,13.20
2023-04-16T02:55:55.500Z,11.52
2023-04-16T02:58:40.880Z,10.50
2023-04-16T03:01:26.149Z,10.98
2023-04-16T03:04:11.717Z,8.02
2023-04-16T03:06:57.110Z,14.85
2023-04-16T03:09:42.637Z,12.80
2023-04-16T03:12:28.479Z,10.23
2023-04-16T03:15:13.941Z,8.93
2023-04-16T03:18:00.222Z,12.68
2023-04-16T03:20:46.132Z,11.48
2023-04-16T03:23:31.554Z,10.55
2023-04-16T03:26:17.314Z,11.10
2023-04-16T03:29:03.067Z,14.25
2023-04-16T03:31:48.864Z,13.52
2023-04-16T03:34:34.154Z,11.95
2023-04-16T03:37:19.630Z,16.77
2023-04-16T03:40:07.284Z,12.02
2023-04-16T03:42:52.981Z,10.35
2023-04-16T03:45:47.369Z,12.02
2023-04-16T03:48:33.027Z,19.63
2023-04-16T03:51:18.435Z,13.30
2023-04-16T03:54:03.866Z,13.05
2023-04-16T03:56:49.555Z,10.85
2023-04-16T03:59:35.212Z,15.13
2023-04-16T04:02:20.647Z,14.80
2023-04-16T04:05:06.645Z,14.73
2023-04-16T04:07:52.589Z,14.75
2023-04-16T04:10:38.570Z,12.18
2023-04-16T04:13:24.106Z,15.45
2023-04-16T04:16:09.515Z,15.88
2023-04-16T04:18:55.654Z,13.63
2023-04-16T04:21:40.983Z,14.82
2023-04-16T04:24:27.187Z,14.05
2023-04-16T04:27:12.527Z,14.18
2023-04-16T04:29:58.241Z,12.30
2023-04-16T04:32:43.968Z,16.08
2023-04-16T04:35:29.682Z,13.45
2023-04-16T04:38:19.740Z,13.02
2023-04-16T04:41:05.743Z,14.27
2023-04-16T04:43:51.486Z,17.08
2023-04-16T04:46:36.788Z,14.43
2023-04-16T04:49:22.357Z,16.48
2023-04-16T04:52:08.755Z,16.95
2023-04-16T04:54:54.425Z,13.68
2023-04-16T04:57:40.145Z,16.95
2023-04-16T05:00:25.631Z,16.88
2023-04-16T05:03:12.530Z,15.27
2023-04-16T05:05:58.144Z,16.38
2023-04-16T05:08:43.492Z,19.08
2023-04-16T05:11:29.754Z,18.83
2023-04-16T05:14:15.443Z,21.77
2023-04-16T05:17:01.103Z,16.52
2023-04-16T05:19:46.727Z,22.75
2023-04-16T05:22:35.208Z,22.83
2023-04-16T05:25:21.124Z,18.40
2023-04-16T05:28:06.462Z,21.92
2023-04-16T05:30:52.159Z,22.33
2023-04-16T05:33:38.129Z,21.38
2023-04-16T05:36:23.806Z,22.35
2023-04-16T05:39:10.808Z,19.67
2023-04-16T05:41:56.293Z,19.70
2023-04-16T05:44:41.976Z,21.33
2023-04-16T05:47:27.822Z,19.67
2023-04-16T05:50:13.543Z,20.75
2023-04-16T05:52:58.991Z,20.52
2023-04-16T05:55:45.004Z,19.88
2023-04-16T05:58:30.775Z,20.05
2023-04-16T06:01:16.705Z,21.20
2023-04-16T06:04:02.427Z,18.23
2023-04-16T06:06:47.999Z,21.13
2023-04-16T06:09:33.591Z,23.25
2023-04-16T06:12:19.042Z,22.55
2023-04-16T06:15:05.645Z,21.23
2023-04-16T06:17:51.402Z,20.05
2023-04-16T06:20:37.020Z,16.45
2023-04-16T06:23:22.874Z,15.82
2023-04-16T06:26:08.070Z,17.52
2023-04-16T06:28:53.635Z,23.80
2023-04-16T06:31:39.373Z,17.67
2023-04-16T06:34:24.926Z,13.70
2023-04-16T06:37:10.906Z,15.45
2023-04-16T06:39:56.484Z,14.30
2023-04-16T06:42:44.857Z,13.68
2023-04-16T06:45:31.580Z,19.63
2023-04-16T06:48:17.000Z,16.42
2023-04-16T06:51:02.690Z,15.60
2023-04-16T06:53:49.158Z,21.17
2023-04-16T06:56:35.780Z,19.90
2023-04-16T06:59:21.043Z,18.48
2023-04-16T07:02:08.815Z,18.30
2023-04-16T07:04:54.533Z,18.35
2023-04-16T07:07:40.216Z,17.88
2023-04-16T07:10:25.846Z,18.73
2023-04-16T07:13:11.327Z,15.43
2023-04-16T07:15:56.846Z,15.35
2023-04-16T07:18:42.252Z,13.27
2023-04-16T07:21:27.860Z,17.65
2023-04-16T07:24:13.816Z,15.80
2023-04-16T07:26:59.320Z,14.80
2023-04-16T07:29:46.036Z,15.35
2023-04-16T07:32:31.794Z,18.83
2023-04-16T07:35:17.451Z,15.75
2023-04-16T07:38:02.787Z,19.88
2023-04-16T07:40:48.168Z,22.90
2023-04-16T07:43:33.704Z,17.02
2023-04-16T07:46:19.079Z,18.20
2023-04-16T07:49:04.704Z,18.55
2023-04-16T07:51:50.318Z,14.02
2023-04-16T07:54:35.888Z,13.65
2023-04-16T07:57:21.579Z,14.25
2023-04-16T08:00:08.484Z,13.77
2023-04-16T08:02:54.261Z,13.38
2023-04-16T08:05:40.266Z,9.00
2023-04-16T08:08:26.192Z,8.25
2023-04-16T08:11:11.609Z,10.68
2023-04-16T08:13:57.665Z,9.18
2023-04-16T08:16:43.363Z,7.70
2023-04-16T08:19:28.807Z,8.63
2023-04-16T08:22:14.709Z,6.72
2023-04-16T08:25:00.126Z,7.25
2023-04-16T08:27:46.034Z,8.07
2023-04-16T08:30:33.842Z,6.72
2023-04-16T08:33:19.870Z,6.38
2023-04-16T08:36:05.593Z,6.63
2023-04-16T08:38:52.320Z,9.05
2023-04-16T08:41:43.031Z,7.60
2023-04-16T08:44:33.742Z,5.68
2023-04-16T08:47:21.139Z,6.53
2023-04-16T08:50:09.026Z,5.22
2023-04-16T08:52:58.569Z,6.20
2023-04-16T08:55:48.380Z,5.65
2023-04-16T08:58:35.661Z,4.68
2023-04-16T09:01:22.280Z,5.97
2023-04-16T09:04:08.566Z,4.82
2023-04-16T09:06:56.625Z,8.38
2023-04-16T09:09:44.004Z,6.55
2023-04-16T09:12:31.052Z,5.78
2023-04-16T09:15:16.788Z,9.30
2023-04-16T09:18:02.637Z,6.97
2023-04-16T09:20:53.030Z,5.95
2023-04-16T09:23:40.082Z,6.22
2023-04-16T09:26:26.733Z,5.32
2023-04-16T09:29:12.357Z,7.05
2023-04-16T09:32:25.302Z,7.80
2023-04-16T09:35:10.823Z,5.80
2023-04-16T09:37:57.602Z,5.95
2023-04-16T09:40:43.022Z,6.40
2023-04-16T09:43:28.663Z,5.05
2023-04-16T09:46:14.315Z,5.25
2023-04-16T09:49:08.572Z,6.72
2023-04-16T09:51:56.214Z,5.55
2023-04-16T09:54:49.685Z,6.30
2023-04-16T10:00:23.783Z,3.70
2023-04-16T10:03:09.170Z,5.63
2023-04-16T10:05:56.873Z,4.43
2023-04-16T10:08:50.775Z,2.90
2023-04-16T10:11:40.158Z,5.05
2023-04-16T10:14:26.587Z,3.58
2023-04-16T10:17:13.085Z,7.40
2023-04-16T10:19:59.063Z,5.68
2023-04-16T10:22:46.738Z,6.10
2023-04-16T10:25:33.191Z,6.40
2023-04-16T10:28:20.354Z,5.15
2023-04-16T10:31:08.306Z,4.85
2023-04-16T10:33:55.331Z,7.97
2023-04-16T10:36:52.219Z,4.30
2023-04-16T10:39:38.988Z,7.22
2023-04-16T10:42:26.070Z,3.63
2023-04-16T10:45:22.155Z,3.22
2023-04-16T10:48:14.840Z,6.95
2023-04-16T10:51:01.014Z,4.07
2023-04-16T10:53:48.570Z,4.80
2023-04-16T10:56:36.076Z,4.00
2023-04-16T10:59:23.844Z,8.50
2023-04-16T11:02:15.835Z,2.42
2023-04-16T11:05:03.002Z,3.25
2023-04-16T11:07:50.516Z,3.22
2023-04-16T11:10:41.888Z,4.18
2023-04-16T11:13:30.630Z,5.28
2023-04-16T11:16:17.404Z,6.18
2023-04-16T11:19:03.081Z,4.93
2023-04-16T11:21:53.977Z,2.70
2023-04-16T11:25:04.481Z,2.80
2023-04-16T11:27:51.490Z,3.95
2023-04-16T11:30:51.559Z,4.38
2023-04-16T11:33:40.379Z,8.88
2023-04-16T11:36:29.761Z,4.63
2023-04-16T11:39:16.443Z,5.22
2023-04-16T11:42:02.134Z,6.55
2023-04-16T11:44:55.294Z,2.78
2023-04-16T11:50:30.812Z,2.85
2023-04-16T11:53:16.712Z,2.90
2023-04-16T11:56:03.435Z,2.58
2023-04-16T11:59:16.685Z,3.45
2023-04-16T12:02:02.026Z,3.75
2023-04-16T12:04:48.103Z,6.45
2023-04-16T12:07:44.675Z,5.32
2023-04-16T12:10:32.337Z,3.45
2023-04-16T12:13:18.238Z,5.22
2023-04-16T12:16:04.100Z,3.65
2023-04-16T12:19:04.075Z,4.05
2023-04-16T12:21:51.171Z,6.68
2023-04-16T12:24:37.912Z,3.88
2023-04-16T12:27:23.422Z,5.65
2023-04-16T12:30:09.357Z,3.92
2023-04-16T12:33:15.029Z,2.22
2023-04-16T12:36:06.110Z,6.00
2023-04-16T12:38:52.040Z,2.95
2023-04-16T12:41:38.979Z,6.10
2023-04-16T12:44:24.621Z,3.50
2023-04-16T12:47:10.518Z,3.22
2023-04-16T12:49:57.848Z,3.03
2023-04-16T12:52:43.431Z,5.05
2023-04-16T12:55:29.077Z,4.32
2023-04-16T12:58:14.761Z,4.88
2023-04-16T13:01:00.220Z,3.60
2023-04-16T13:03:46.345Z,3.45
2023-04-16T13:06:33.919Z,4.05
2023-04-16T13:09:20.295Z,4.45
2023-04-16T13:12:06.383Z,4.07
2023-04-16T13:14:52.566Z,3.80
2023-04-16T13:17:38.823Z,3.50
2023-04-16T13:20:25.493Z,7.75
2023-04-16T13:23:11.833Z,3.35
2023-04-16T13:25:57.586Z,2.67
2023-04-16T13:28:42.877Z,3.63
2023-04-16T13:31:28.482Z,7.05
2023-04-16T13:34:14.322Z,4.22
2023-04-16T13:37:00.034Z,2.75
2023-04-16T13:39:45.609Z,2.90
2023-04-16T13:42:32.428Z,4.15
2023-04-16T13:45:20.348Z,2.97
2023-04-16T13:48:06.330Z,3.03
2023-04-16T13:50:51.398Z,4.65
2023-04-16T13:53:37.057Z,3.40
2023-04-16T13:56:22.573Z,4.30
2023-04-16T13:59:08.495Z,5.70
2023-04-16T14:01:54.912Z,4.00
2023-04-16T14:04:41.389Z,3.85
2023-04-16T14:07:27.802Z,4.15
2023-04-16T14:10:13.231Z,3.47
2023-04-16T14:12:59.119Z,3.42
2023-04-16T14:15:44.807Z,50.28
2023-04-16T14:18:30.448Z,6.07
2023-04-16T14:21:16.378Z,3.47
2023-04-16T14:24:02.880Z,5.15
2023-04-16T14:26:48.471Z,4.93
2023-04-16T14:29:34.369Z,7.15
2023-04-16T14:32:19.677Z,8.40
2023-04-16T14:35:06.501Z,25.10
2023-04-16T14:37:52.252Z,3.45
2023-04-16T14:40:37.968Z,2.35
2023-04-16T14:43:23.690Z,2.15
2023-04-16T14:46:09.090Z,3.45
2023-04-16T14:48:55.511Z,12.07
2023-04-16T14:51:41.898Z,6.32
2023-04-16T14:54:28.107Z,2.75
2023-04-16T14:57:14.832Z,20.13
2023-04-16T15:00:01.449Z,17.40
2023-04-16T15:02:49.006Z,32.60
2023-04-16T15:05:36.031Z,5.90
2023-04-16T15:08:23.043Z,12.48
2023-04-16T15:11:08.819Z,45.83
2023-04-16T15:13:54.907Z,22.00
2023-04-16T15:16:40.658Z,11.93
2023-04-16T15:19:26.241Z,14.75
2023-04-16T15:22:12.865Z,15.98
2023-04-16T15:24:58.839Z,16.33
2023-04-16T15:27:44.611Z,17.15
2023-04-16T15:30:31.435Z,3.78
2023-04-16T15:33:16.958Z,4.28
2023-04-16T15:36:02.522Z,6.40
2023-04-16T15:38:51.473Z,28.00
2023-04-16T15:41:50.086Z,26.08
2023-04-16T15:44:42.759Z,3.03
2023-04-16T15:47:29.312Z,37.25
2023-04-16T15:50:15.283Z,9.02
2023-04-16T15:53:00.392Z,5.15
2023-04-16T15:55:46.397Z,13.55
2023-04-16T15:58:32.098Z,4.53
2023-04-16T16:01:18.148Z,3.50
2023-04-16T16:04:05.682Z,3.22
2023-04-16T16:06:53.172Z,10.15
2023-04-16T16:09:38.719Z,6.93
2023-04-16T16:12:27.515Z,3.30
2023-04-16T16:15:13.217Z,4.18
2023-04-16T16:17:58.799Z,4.32
2023-04-16T16:20:44.460Z,10.43
2023-04-16T16:23:29.827Z,6.72
2023-04-16T16:26:15.404Z,2.35
2023-04-16T16:29:01.576Z,3.50
2023-04-16T16:31:47.462Z,1.42
2023-04-16T16:34:32.987Z,1.25
2023-04-16T16:37:18.591Z,2.08
2023-04-16T16:40:04.455Z,4.10
2023-04-16T16:42:50.014Z,3.08
2023-04-16T16:45:36.200Z,4.55
2023-04-16T16:48:21.835Z,2.85
2023-04-16T16:51:10.590Z,3.80
2023-04-16T16:53:55.790Z,2.17
2023-04-16T16:56:41.667Z,3.17
2023-04-16T16:59:27.085Z,2.38
2023-04-16T17:02:13.081Z,3.47
2023-04-16T17:04:59.552Z,4.68
2023-04-16T17:07:44.916Z,4.07
2023-04-16T17:10:30.660Z,6.32
2023-04-16T17:13:19.783Z,3.78
2023-04-16T17:16:05.635Z,6.22
2023-04-16T17:18:51.746Z,3.83
2023-04-16T17:21:37.323Z,7.32
2023-04-16T17:24:22.667Z,5.60
2023-04-16T17:27:08.128Z,4.75
2023-04-16T17:29:59.871Z,3.00
2023-04-16T17:32:45.536Z,5.53
2023-04-16T17:35:31.332Z,5.30
2023-04-16T17:38:16.950Z,3.70
2023-04-16T17:41:02.562Z,3.58
2023-04-16T17:43:49.721Z,4.90
2023-04-16T17:46:35.699Z,5.88
2023-04-16T17:49:21.610Z,5.18
2023-04-16T17:52:07.239Z,4.20
2023-04-16T17:54:56.618Z,3.00
2023-04-16T17:57:42.234Z,3.92
2023-04-16T18:00:27.888Z,4.22
2023-04-16T18:03:14.833Z,4.22
2023-04-16T18:06:01.089Z,3.47
2023-04-16T18:08:47.063Z,4.07
2023-04-16T18:11:32.578Z,6.45
2023-04-16T18:14:20.452Z,5.90
2023-04-16T18:17:06.798Z,7.93
2023-04-16T18:19:52.055Z,6.60
2023-04-16T18:22:37.656Z,4.43
2023-04-16T18:25:32.322Z,5.97
2023-04-16T18:28:20.498Z,3.95
2023-04-16T18:31:07.757Z,4.50
2023-04-16T18:33:58.014Z,3.67
2023-04-16T18:36:44.483Z,4.47
2023-04-16T18:39:33.239Z,5.75
2023-04-16T18:42:18.489Z,4.40
2023-04-16T18:45:05.893Z,2.60
2023-04-16T18:47:51.615Z,6.65
2023-04-16T18:50:37.151Z,5.53
2023-04-16T18:53:23.122Z,6.10
2023-04-16T18:56:09.698Z,3.13
2023-04-16T18:58:55.235Z,4.28
2023-04-16T19:01:41.344Z,5.20
2023-04-16T19:04:26.934Z,7.63
2023-04-16T19:07:12.412Z,4.20
2023-04-16T19:09:58.127Z,6.40
2023-04-16T19:12:44.033Z,5.30
2023-04-16T19:15:31.660Z,5.80
2023-04-16T19:18:19.116Z,7.65
2023-04-16T19:21:05.689Z,10.27
2023-04-16T19:23:51.232Z,5.53
2023-04-16T19:26:37.340Z,6.85
2023-04-16T19:29:22.923Z,6.65
2023-04-16T19:32:08.682Z,6.85
2023-04-16T19:34:54.173Z,7.03
2023-04-16T19:37:39.904Z,6.65
2023-04-16T19:40:25.558Z,5.28
2023-04-16T19:43:10.923Z,7.68
2023-04-16T19:45:56.419Z,6.75
2023-04-16T19:48:41.942Z,5.32
2023-04-16T19:51:27.530Z,7.43
2023-04-16T19:54:13.492Z,6.97
2023-04-16T19:56:59.122Z,6.07
2023-04-16T19:59:44.816Z,9.82
2023-04-16T20:02:30.197Z,5.03
2023-04-16T20:05:15.930Z,3.35
2023-04-16T20:08:01.472Z,7.57
2023-04-16T20:10:46.912Z,5.75
2023-04-16T20:13:32.592Z,4.82
2023-04-16T20:16:22.804Z,5.47
2023-04-16T20:19:09.089Z,6.15
2023-04-16T20:21:54.838Z,8.30
2023-04-16T20:24:41.637Z,8.13
2023-04-16T20:27:27.278Z,6.93
2023-04-16T20:30:13.463Z,7.80
2023-04-16T20:32:59.456Z,6.35
2023-04-16T20:35:45.488Z,4.88
2023-04-16T20:38:32.582Z,7.68
2023-04-16T20:41:21.281Z,4.70
2023-04-16T20:44:10.482Z,6.35
2023-04-16T20:46:57.125Z,5.40
2023-04-16T20:49:46.607Z,8.63
2023-04-16T20:52:32.822Z,8.27
2023-04-16T20:55:18.564Z,8.90
2023-04-16T20:58:04.396Z,11.07
2023-04-16T21:00:54.634Z,7.75
2023-04-16T21:03:40.870Z,8.88
2023-04-16T21:06:26.171Z,9.80
2023-04-16T21:09:12.981Z,7.75
2023-04-16T21:11:59.429Z,7.47
2023-04-16T21:14:45.172Z,9.38
2023-04-16T21:17:31.121Z,6.13
2023-04-16T21:20:30.648Z,7.00
2023-04-16T21:23:16.786Z,8.13
2023-04-16T21:26:02.679Z,8.60
2023-04-16T21:28:48.496Z,5.70
2023-04-16T21:31:34.296Z,10.07
2023-04-16T21:34:19.824Z,6.35
2023-04-16T21:37:05.456Z,9.55
2023-04-16T21:39:51.116Z,9.00
2023-04-16T21:42:42.286Z,7.57
2023-04-16T21:45:30.003Z,6.50
2023-04-16T21:48:16.374Z,8.70
2023-04-16T21:51:06.822Z,6.10
2023-04-16T21:53:52.710Z,8.45
2023-04-16T21:56:38.183Z,5.88
2023-04-16T21:59:23.939Z,9.93
2023-04-16T22:02:10.473Z,8.82
2023-04-16T22:04:56.175Z,7.50
2023-04-16T22:07:42.720Z,6.90
2023-04-16T22:10:28.406Z,8.18
2023-04-16T22:13:14.076Z,6.85
2023-04-16T22:16:03.322Z,7.50
2023-04-16T22:18:49.401Z,9.48
2023-04-16T22:21:35.116Z,9.68
2023-04-16T22:24:21.343Z,5.72
2023-04-16T22:27:07.371Z,9.13
2023-04-16T22:29:53.267Z,9.48
2023-04-16T22:32:39.098Z,7.95
2023-04-16T22:35:25.136Z,8.02
2023-04-16T22:38:11.690Z,9.75
2023-04-16T22:40:57.472Z,7.32
2023-04-16T22:43:43.655Z,12.70
2023-04-16T22:46:29.297Z,7.53
2023-04-16T22:49:15.213Z,6.53
2023-04-16T22:52:00.938Z,7.85
2023-04-16T22:54:49.020Z,6.18
2023-04-16T22:57:40.411Z,8.48
2023-04-16T23:00:27.381Z,7.97
2023-04-16T23:03:13.368Z,7.28
2023-04-16T23:05:59.031Z,7.93
2023-04-16T23:08:44.506Z,5.28
2023-04-16T23:11:29.994Z,7.18
2023-04-16T23:14:16.828Z,9.07
2023-04-16T23:17:03.118Z,6.07
2023-04-16T23:19:48.593Z,5.80
2023-04-16T23:22:34.451Z,4.22
2023-04-16T23:25:22.399Z,7.18
2023-04-16T23:28:12.283Z,4.68
2023-04-16T23:30:57.680Z,8.13
2023-04-16T23:33:43.324Z,4.60
2023-04-16T23:36:28.550Z,6.55
2023-04-16T23:39:14.171Z,7.30
2023-04-16T23:41:59.921Z,7.35
2023-04-16T23:44:45.569Z,7.50
2023-04-16T23:47:31.037Z,8.30
2023-04-16T23:50:16.744Z,5.18
2023-04-16T23:53:02.165Z,4.95
2023-04-16T23:55:47.832Z,8.15
2023-04-16T23:58:33.710Z,8.10
